sensor_id;sensor_type;location;lat;lon;timestamp;pressure;altitude;pressure_sealevel;temperature;humidity
35291;BME280;21411;50.024;19.220;2024-03-17T00:02:18;99082.07;;;8.29;100.00
35291;BME280;21411;50.024;19.220;2024-03-17T00:04:45;99085.56;;;8.20;100.00
35291;BME280;21411;50.024;19.220;2024-03-17T00:07:12;99091.10;;;8.13;100.00
35291;BME280;21411;50.024;19.220;2024-03-17T00:09:39;99098.48;;;8.07;100.00
35291;BME280;21411;50.024;19.220;2024-03-17T00:12:06;99102.07;;;8.00;100.00
35291;BME280;21411;50.024;19.220;2024-03-17T00:14:34;99110.30;;;7.92;100.00
35291;BME280;21411;50.024;19.220;2024-03-17T00:17:01;99116.73;;;7.84;100.00
35291;BME280;21411;50.024;19.220;2024-03-17T00:19:27;99120.06;;;7.72;100.00
35291;BME280;21411;50.024;19.220;2024-03-17T00:21:54;99120.14;;;7.60;100.00
35291;BME280;21411;50.024;19.220;2024-03-17T00:24:20;99120.99;;;7.47;100.00
35291;BME280;21411;50.024;19.220;2024-03-17T00:26:47;99127.20;;;7.37;100.00
35291;BME280;21411;50.024;19.220;2024-03-17T00:29:15;99126.43;;;7.31;100.00
35291;BME280;21411;50.024;19.220;2024-03-17T00:31:41;99120.38;;;7.25;100.00
35291;BME280;21411;50.024;19.220;2024-03-17T00:34:08;99120.11;;;7.20;100.00
35291;BME280;21411;50.024;19.220;2024-03-17T00:36:35;99120.66;;;7.16;100.00
35291;BME280;21411;50.024;19.220;2024-03-17T00:39:02;99125.75;;;7.14;100.00
35291;BME280;21411;50.024;19.220;2024-03-17T00:41:29;99131.01;;;7.11;100.00
35291;BME280;21411;50.024;19.220;2024-03-17T00:43:56;99138.92;;;7.08;100.00
35291;BME280;21411;50.024;19.220;2024-03-17T00:46:23;99145.43;;;7.05;100.00
35291;BME280;21411;50.024;19.220;2024-03-17T00:48:50;99149.64;;;7.02;100.00
35291;BME280;21411;50.024;19.220;2024-03-17T00:51:16;99152.90;;;7.00;100.00
35291;BME280;21411;50.024;19.220;2024-03-17T00:53:43;99163.59;;;6.98;100.00
35291;BME280;21411;50.024;19.220;2024-03-17T00:56:09;99167.89;;;6.97;100.00
35291;BME280;21411;50.024;19.220;2024-03-17T00:58:35;99167.45;;;6.95;100.00
35291;BME280;21411;50.024;19.220;2024-03-17T01:01:02;99169.41;;;6.95;100.00
35291;BME280;21411;50.024;19.220;2024-03-17T01:03:28;99172.83;;;6.94;100.00
35291;BME280;21411;50.024;19.220;2024-03-17T01:05:55;99174.75;;;6.90;100.00
35291;BME280;21411;50.024;19.220;2024-03-17T01:08:21;99178.23;;;6.88;100.00
35291;BME280;21411;50.024;19.220;2024-03-17T01:10:48;99183.25;;;6.87;100.00
35291;BME280;21411;50.024;19.220;2024-03-17T01:13:18;99185.83;;;6.85;100.00
35291;BME280;21411;50.024;19.220;2024-03-17T01:15:44;99187.52;;;6.82;100.00
35291;BME280;21411;50.024;19.220;2024-03-17T01:18:11;99189.90;;;6.80;100.00
35291;BME280;21411;50.024;19.220;2024-03-17T01:20:38;99194.27;;;6.78;100.00
35291;BME280;21411;50.024;19.220;2024-03-17T01:23:05;99198.46;;;6.75;100.00
35291;BME280;21411;50.024;19.220;2024-03-17T01:25:33;99209.13;;;6.70;100.00
35291;BME280;21411;50.024;19.220;2024-03-17T01:28:05;99207.90;;;6.58;100.00
35291;BME280;21411;50.024;19.220;2024-03-17T01:30:32;99224.34;;;6.47;100.00
35291;BME280;21411;50.024;19.220;2024-03-17T01:33:00;99225.77;;;6.39;100.00
35291;BME280;21411;50.024;19.220;2024-03-17T01:35:27;99224.57;;;6.34;100.00
35291;BME280;21411;50.024;19.220;2024-03-17T01:37:53;99235.98;;;6.28;100.00
35291;BME280;21411;50.024;19.220;2024-03-17T01:40:20;99248.72;;;6.19;100.00
35291;BME280;21411;50.024;19.220;2024-03-17T01:42:47;99259.78;;;6.08;100.00
35291;BME280;21411;50.024;19.220;2024-03-17T01:45:23;99263.26;;;5.98;100.00
35291;BME280;21411;50.024;19.220;2024-03-17T01:47:52;99264.95;;;5.86;100.00
35291;BME280;21411;50.024;19.220;2024-03-17T01:50:18;99271.33;;;5.78;100.00
35291;BME280;21411;50.024;19.220;2024-03-17T01:52:56;99274.89;;;5.72;100.00
35291;BME280;21411;50.024;19.220;2024-03-17T01:55:23;99274.08;;;5.71;100.00
35291;BME280;21411;50.024;19.220;2024-03-17T01:57:50;99276.66;;;5.68;100.00
35291;BME280;21411;50.024;19.220;2024-03-17T02:00:16;99282.92;;;5.65;100.00
35291;BME280;21411;50.024;19.220;2024-03-17T02:02:42;99283.70;;;5.64;100.00
35291;BME280;21411;50.024;19.220;2024-03-17T02:05:09;99279.54;;;5.63;100.00
35291;BME280;21411;50.024;19.220;2024-03-17T02:07:36;99280.46;;;5.61;100.00
35291;BME280;21411;50.024;19.220;2024-03-17T02:10:03;99282.22;;;5.62;100.00
35291;BME280;21411;50.024;19.220;2024-03-17T02:12:30;99282.25;;;5.61;100.00
35291;BME280;21411;50.024;19.220;2024-03-17T02:14:58;99288.42;;;5.61;100.00
35291;BME280;21411;50.024;19.220;2024-03-17T02:17:24;99290.88;;;5.61;100.00
35291;BME280;21411;50.024;19.220;2024-03-17T02:19:54;99293.86;;;5.62;100.00
35291;BME280;21411;50.024;19.220;2024-03-17T02:22:21;99293.67;;;5.62;100.00
35291;BME280;21411;50.024;19.220;2024-03-17T02:24:47;99294.39;;;5.62;100.00
35291;BME280;21411;50.024;19.220;2024-03-17T02:27:13;99295.57;;;5.63;100.00
35291;BME280;21411;50.024;19.220;2024-03-17T02:29:40;99299.19;;;5.64;100.00
35291;BME280;21411;50.024;19.220;2024-03-17T02:32:07;99296.50;;;5.65;100.00
35291;BME280;21411;50.024;19.220;2024-03-17T02:34:34;99299.09;;;5.67;100.00
35291;BME280;21411;50.024;19.220;2024-03-17T02:37:02;99295.15;;;5.68;100.00
35291;BME280;21411;50.024;19.220;2024-03-17T02:39:29;99294.79;;;5.68;100.00
35291;BME280;21411;50.024;19.220;2024-03-17T02:42:05;99290.17;;;5.69;100.00
35291;BME280;21411;50.024;19.220;2024-03-17T02:44:34;99288.02;;;5.70;100.00
35291;BME280;21411;50.024;19.220;2024-03-17T02:47:03;99289.40;;;5.71;100.00
35291;BME280;21411;50.024;19.220;2024-03-17T02:49:36;99294.67;;;5.71;100.00
35291;BME280;21411;50.024;19.220;2024-03-17T02:52:03;99296.27;;;5.71;100.00
35291;BME280;21411;50.024;19.220;2024-03-17T02:54:33;99299.97;;;5.71;100.00
35291;BME280;21411;50.024;19.220;2024-03-17T02:57:02;99298.40;;;5.71;100.00
35291;BME280;21411;50.024;19.220;2024-03-17T02:59:28;99299.42;;;5.71;100.00
35291;BME280;21411;50.024;19.220;2024-03-17T03:01:55;99299.73;;;5.72;100.00
35291;BME280;21411;50.024;19.220;2024-03-17T03:04:21;99300.76;;;5.73;100.00
35291;BME280;21411;50.024;19.220;2024-03-17T03:06:47;99300.40;;;5.73;100.00
35291;BME280;21411;50.024;19.220;2024-03-17T03:09:14;99301.40;;;5.75;100.00
35291;BME280;21411;50.024;19.220;2024-03-17T03:11:47;99302.25;;;5.76;100.00
35291;BME280;21411;50.024;19.220;2024-03-17T03:14:13;99302.94;;;5.76;100.00
35291;BME280;21411;50.024;19.220;2024-03-17T03:16:39;99306.07;;;5.77;100.00
35291;BME280;21411;50.024;19.220;2024-03-17T03:19:06;99309.94;;;5.77;100.00
35291;BME280;21411;50.024;19.220;2024-03-17T03:21:32;99311.87;;;5.78;100.00
35291;BME280;21411;50.024;19.220;2024-03-17T03:23:58;99312.36;;;5.78;100.00
35291;BME280;21411;50.024;19.220;2024-03-17T03:26:25;99314.84;;;5.78;100.00
35291;BME280;21411;50.024;19.220;2024-03-17T03:28:51;99318.61;;;5.77;100.00
35291;BME280;21411;50.024;19.220;2024-03-17T03:31:17;99321.47;;;5.76;100.00
35291;BME280;21411;50.024;19.220;2024-03-17T03:33:44;99324.84;;;5.75;100.00
35291;BME280;21411;50.024;19.220;2024-03-17T03:36:11;99334.45;;;5.73;100.00
35291;BME280;21411;50.024;19.220;2024-03-17T03:38:39;99339.67;;;5.70;100.00
35291;BME280;21411;50.024;19.220;2024-03-17T03:41:07;99344.31;;;5.69;100.00
35291;BME280;21411;50.024;19.220;2024-03-17T03:43:33;99340.84;;;5.68;100.00
35291;BME280;21411;50.024;19.220;2024-03-17T03:46:01;99343.22;;;5.65;100.00
35291;BME280;21411;50.024;19.220;2024-03-17T03:48:27;99346.55;;;5.62;100.00
35291;BME280;21411;50.024;19.220;2024-03-17T03:50:53;99350.34;;;5.60;100.00
35291;BME280;21411;50.024;19.220;2024-03-17T03:53:23;99357.83;;;5.58;100.00
35291;BME280;21411;50.024;19.220;2024-03-17T03:55:49;99364.95;;;5.56;100.00
35291;BME280;21411;50.024;19.220;2024-03-17T03:58:15;99367.50;;;5.54;100.00
35291;BME280;21411;50.024;19.220;2024-03-17T04:00:42;99366.93;;;5.50;100.00
35291;BME280;21411;50.024;19.220;2024-03-17T04:03:08;99372.54;;;5.47;100.00
35291;BME280;21411;50.024;19.220;2024-03-17T04:05:34;99374.61;;;5.43;100.00
35291;BME280;21411;50.024;19.220;2024-03-17T04:08:01;99374.66;;;5.38;100.00
35291;BME280;21411;50.024;19.220;2024-03-17T04:10:27;99382.35;;;5.30;100.00
35291;BME280;21411;50.024;19.220;2024-03-17T04:12:53;99385.23;;;5.24;100.00
35291;BME280;21411;50.024;19.220;2024-03-17T04:15:20;99391.87;;;5.16;100.00
35291;BME280;21411;50.024;19.220;2024-03-17T04:17:46;99392.65;;;5.10;100.00
35291;BME280;21411;50.024;19.220;2024-03-17T04:20:13;99396.50;;;5.01;100.00
35291;BME280;21411;50.024;19.220;2024-03-17T04:22:40;99398.21;;;4.93;100.00
35291;BME280;21411;50.024;19.220;2024-03-17T04:25:10;99398.48;;;4.86;100.00
35291;BME280;21411;50.024;19.220;2024-03-17T04:27:36;99401.35;;;4.79;100.00
35291;BME280;21411;50.024;19.220;2024-03-17T04:30:03;99403.62;;;4.70;100.00
35291;BME280;21411;50.024;19.220;2024-03-17T04:32:32;99402.95;;;4.60;100.00
35291;BME280;21411;50.024;19.220;2024-03-17T04:34:59;99407.13;;;4.52;100.00
35291;BME280;21411;50.024;19.220;2024-03-17T04:37:26;99414.95;;;4.44;100.00
35291;BME280;21411;50.024;19.220;2024-03-17T04:39:52;99420.48;;;4.37;100.00
35291;BME280;21411;50.024;19.220;2024-03-17T04:42:18;99419.13;;;4.30;100.00
35291;BME280;21411;50.024;19.220;2024-03-17T04:44:45;99420.43;;;4.23;100.00
35291;BME280;21411;50.024;19.220;2024-03-17T04:47:12;99424.18;;;4.16;100.00
35291;BME280;21411;50.024;19.220;2024-03-17T04:49:43;99426.17;;;4.10;100.00
35291;BME280;21411;50.024;19.220;2024-03-17T04:52:11;99425.14;;;4.04;100.00
35291;BME280;21411;50.024;19.220;2024-03-17T04:54:37;99426.38;;;3.98;100.00
35291;BME280;21411;50.024;19.220;2024-03-17T04:57:04;99432.88;;;3.93;100.00
35291;BME280;21411;50.024;19.220;2024-03-17T04:59:34;99435.48;;;3.88;100.00
35291;BME280;21411;50.024;19.220;2024-03-17T05:02:01;99436.09;;;3.86;100.00
35291;BME280;21411;50.024;19.220;2024-03-17T05:04:29;99438.45;;;3.83;100.00
35291;BME280;21411;50.024;19.220;2024-03-17T05:06:55;99440.73;;;3.83;100.00
35291;BME280;21411;50.024;19.220;2024-03-17T05:09:22;99440.20;;;3.84;100.00
35291;BME280;21411;50.024;19.220;2024-03-17T05:11:52;99442.92;;;3.86;100.00
35291;BME280;21411;50.024;19.220;2024-03-17T05:14:18;99445.27;;;3.95;100.00
35291;BME280;21411;50.024;19.220;2024-03-17T05:16:49;99450.27;;;3.98;100.00
35291;BME280;21411;50.024;19.220;2024-03-17T05:19:16;99448.14;;;4.10;100.00
35291;BME280;21411;50.024;19.220;2024-03-17T05:21:44;99443.23;;;4.35;100.00
35291;BME280;21411;50.024;19.220;2024-03-17T05:24:11;99444.19;;;4.63;100.00
35291;BME280;21411;50.024;19.220;2024-03-17T05:26:40;99440.58;;;4.95;100.00
35291;BME280;21411;50.024;19.220;2024-03-17T05:29:08;99441.04;;;5.11;100.00
35291;BME280;21411;50.024;19.220;2024-03-17T05:31:35;99450.56;;;5.15;100.00
35291;BME280;21411;50.024;19.220;2024-03-17T05:34:02;99448.02;;;5.13;100.00
35291;BME280;21411;50.024;19.220;2024-03-17T05:36:28;99453.63;;;5.09;100.00
35291;BME280;21411;50.024;19.220;2024-03-17T05:38:58;99456.59;;;5.05;100.00
35291;BME280;21411;50.024;19.220;2024-03-17T05:41:25;99456.64;;;4.99;100.00
35291;BME280;21411;50.024;19.220;2024-03-17T05:43:52;99455.87;;;5.01;100.00
35291;BME280;21411;50.024;19.220;2024-03-17T05:46:21;99458.44;;;5.31;100.00
35291;BME280;21411;50.024;19.220;2024-03-17T05:48:48;99457.66;;;5.65;100.00
35291;BME280;21411;50.024;19.220;2024-03-17T05:51:14;99460.71;;;5.85;100.00
35291;BME280;21411;50.024;19.220;2024-03-17T05:53:42;99461.50;;;5.79;100.00
35291;BME280;21411;50.024;19.220;2024-03-17T05:56:10;99464.20;;;5.77;100.00
35291;BME280;21411;50.024;19.220;2024-03-17T05:58:42;99466.38;;;5.80;100.00
35291;BME280;21411;50.024;19.220;2024-03-17T06:01:09;99465.78;;;5.96;100.00
35291;BME280;21411;50.024;19.220;2024-03-17T06:03:35;99465.48;;;6.08;100.00
35291;BME280;21411;50.024;19.220;2024-03-17T06:06:03;99464.79;;;6.03;100.00
35291;BME280;21411;50.024;19.220;2024-03-17T06:08:30;99464.33;;;5.92;100.00
35291;BME280;21411;50.024;19.220;2024-03-17T06:10:56;99462.63;;;5.81;100.00
35291;BME280;21411;50.024;19.220;2024-03-17T06:13:27;99462.52;;;5.75;100.00
35291;BME280;21411;50.024;19.220;2024-03-17T06:15:54;99466.84;;;5.69;100.00
35291;BME280;21411;50.024;19.220;2024-03-17T06:18:21;99471.17;;;5.66;100.00
35291;BME280;21411;50.024;19.220;2024-03-17T06:20:48;99475.31;;;5.73;100.00
35291;BME280;21411;50.024;19.220;2024-03-17T06:23:15;99479.13;;;5.79;100.00
35291;BME280;21411;50.024;19.220;2024-03-17T06:25:45;99479.92;;;5.77;100.00
35291;BME280;21411;50.024;19.220;2024-03-17T06:28:14;99485.98;;;5.66;100.00
35291;BME280;21411;50.024;19.220;2024-03-17T06:30:41;99486.58;;;5.60;100.00
35291;BME280;21411;50.024;19.220;2024-03-17T06:33:11;99485.01;;;5.60;100.00
35291;BME280;21411;50.024;19.220;2024-03-17T06:35:39;99487.30;;;5.68;100.00
35291;BME280;21411;50.024;19.220;2024-03-17T06:38:05;99489.36;;;5.74;100.00
35291;BME280;21411;50.024;19.220;2024-03-17T06:40:36;99486.52;;;5.75;100.00
35291;BME280;21411;50.024;19.220;2024-03-17T06:43:03;99487.23;;;5.79;100.00
35291;BME280;21411;50.024;19.220;2024-03-17T06:45:30;99488.31;;;5.74;100.00
35291;BME280;21411;50.024;19.220;2024-03-17T06:47:56;99491.00;;;5.77;100.00
35291;BME280;21411;50.024;19.220;2024-03-17T06:50:23;99487.41;;;5.79;100.00
35291;BME280;21411;50.024;19.220;2024-03-17T06:52:49;99485.73;;;5.73;100.00
35291;BME280;21411;50.024;19.220;2024-03-17T06:55:16;99489.08;;;5.72;100.00
35291;BME280;21411;50.024;19.220;2024-03-17T06:57:42;99489.04;;;5.78;100.00
35291;BME280;21411;50.024;19.220;2024-03-17T07:00:11;99485.19;;;5.86;100.00
35291;BME280;21411;50.024;19.220;2024-03-17T07:02:40;99481.84;;;5.96;100.00
35291;BME280;21411;50.024;19.220;2024-03-17T07:05:13;99485.22;;;5.99;100.00
35291;BME280;21411;50.024;19.220;2024-03-17T07:07:43;99480.95;;;6.05;100.00
35291;BME280;21411;50.024;19.220;2024-03-17T07:10:11;99478.05;;;6.15;100.00
35291;BME280;21411;50.024;19.220;2024-03-17T07:12:38;99481.08;;;6.19;100.00
35291;BME280;21411;50.024;19.220;2024-03-17T07:15:05;99480.88;;;6.15;100.00
35291;BME280;21411;50.024;19.220;2024-03-17T07:17:32;99480.42;;;6.09;100.00
35291;BME280;21411;50.024;19.220;2024-03-17T07:19:59;99484.33;;;6.08;100.00
35291;BME280;21411;50.024;19.220;2024-03-17T07:22:25;99489.68;;;6.02;100.00
35291;BME280;21411;50.024;19.220;2024-03-17T07:24:53;99490.66;;;6.04;100.00
35291;BME280;21411;50.024;19.220;2024-03-17T07:27:29;99493.26;;;6.14;100.00
35291;BME280;21411;50.024;19.220;2024-03-17T07:29:56;99495.83;;;6.21;100.00
35291;BME280;21411;50.024;19.220;2024-03-17T07:32:22;99499.23;;;6.36;100.00
35291;BME280;21411;50.024;19.220;2024-03-17T07:34:51;99497.24;;;6.58;100.00
35291;BME280;21411;50.024;19.220;2024-03-17T07:37:18;99493.82;;;6.73;100.00
35291;BME280;21411;50.024;19.220;2024-03-17T07:39:45;99502.69;;;6.76;100.00
35291;BME280;21411;50.024;19.220;2024-03-17T07:42:14;99500.91;;;6.72;100.00
35291;BME280;21411;50.024;19.220;2024-03-17T07:44:43;99497.86;;;6.77;100.00
35291;BME280;21411;50.024;19.220;2024-03-17T07:47:09;99497.02;;;6.85;100.00
35291;BME280;21411;50.024;19.220;2024-03-17T07:49:36;99498.39;;;6.86;100.00
35291;BME280;21411;50.024;19.220;2024-03-17T07:52:02;99494.13;;;6.82;100.00
35291;BME280;21411;50.024;19.220;2024-03-17T07:54:29;99492.53;;;6.78;100.00
35291;BME280;21411;50.024;19.220;2024-03-17T07:56:55;99491.45;;;6.78;100.00
35291;BME280;21411;50.024;19.220;2024-03-17T07:59:21;99489.23;;;6.73;100.00
35291;BME280;21411;50.024;19.220;2024-03-17T08:01:48;99492.13;;;6.71;100.00
35291;BME280;21411;50.024;19.220;2024-03-17T08:04:14;99496.87;;;6.75;100.00
35291;BME280;21411;50.024;19.220;2024-03-17T08:06:41;99501.48;;;6.71;100.00
35291;BME280;21411;50.024;19.220;2024-03-17T08:09:08;99507.96;;;6.64;100.00
35291;BME280;21411;50.024;19.220;2024-03-17T08:11:35;99504.66;;;6.70;100.00
35291;BME280;21411;50.024;19.220;2024-03-17T08:14:02;99504.17;;;6.82;100.00
35291;BME280;21411;50.024;19.220;2024-03-17T08:16:29;99503.37;;;6.96;100.00
35291;BME280;21411;50.024;19.220;2024-03-17T08:18:56;99505.18;;;7.00;100.00
35291;BME280;21411;50.024;19.220;2024-03-17T08:21:23;99502.90;;;7.03;100.00
35291;BME280;21411;50.024;19.220;2024-03-17T08:23:50;99500.96;;;7.27;100.00
35291;BME280;21411;50.024;19.220;2024-03-17T08:26:17;99506.69;;;7.60;100.00
35291;BME280;21411;50.024;19.220;2024-03-17T08:28:44;99501.20;;;7.86;100.00
35291;BME280;21411;50.024;19.220;2024-03-17T08:31:13;99506.48;;;7.98;100.00
35291;BME280;21411;50.024;19.220;2024-03-17T08:33:41;99503.74;;;7.89;100.00
35291;BME280;21411;50.024;19.220;2024-03-17T08:36:08;99506.69;;;7.64;100.00
35291;BME280;21411;50.024;19.220;2024-03-17T08:38:36;99510.64;;;7.43;100.00
35291;BME280;21411;50.024;19.220;2024-03-17T08:41:09;99514.25;;;7.22;100.00
35291;BME280;21411;50.024;19.220;2024-03-17T08:43:37;99512.05;;;7.12;100.00
35291;BME280;21411;50.024;19.220;2024-03-17T08:46:05;99507.25;;;7.25;100.00
35291;BME280;21411;50.024;19.220;2024-03-17T08:48:33;99500.66;;;7.45;100.00
35291;BME280;21411;50.024;19.220;2024-03-17T08:51:02;99497.96;;;7.46;100.00
35291;BME280;21411;50.024;19.220;2024-03-17T08:53:29;99493.64;;;7.52;100.00
35291;BME280;21411;50.024;19.220;2024-03-17T08:55:56;99484.98;;;7.63;100.00
35291;BME280;21411;50.024;19.220;2024-03-17T08:58:23;99484.30;;;7.74;100.00
35291;BME280;21411;50.024;19.220;2024-03-17T09:00:49;99483.72;;;7.90;97.40
35291;BME280;21411;50.024;19.220;2024-03-17T09:03:17;99486.78;;;7.99;94.50
35291;BME280;21411;50.024;19.220;2024-03-17T09:05:46;99489.13;;;7.95;92.16
35291;BME280;21411;50.024;19.220;2024-03-17T09:08:20;99485.89;;;7.81;90.68
35291;BME280;21411;50.024;19.220;2024-03-17T09:10:49;99481.44;;;7.67;89.23
35291;BME280;21411;50.024;19.220;2024-03-17T09:13:23;99478.41;;;7.63;89.33
35291;BME280;21411;50.024;19.220;2024-03-17T09:15:58;99469.20;;;7.60;85.52
35291;BME280;21411;50.024;19.220;2024-03-17T09:18:32;99464.81;;;7.67;86.02
35291;BME280;21411;50.024;19.220;2024-03-17T09:21:00;99468.67;;;7.86;85.43
35291;BME280;21411;50.024;19.220;2024-03-17T09:23:30;99469.66;;;8.02;81.36
35291;BME280;21411;50.024;19.220;2024-03-17T09:26:01;99464.70;;;8.13;80.93
35291;BME280;21411;50.024;19.220;2024-03-17T09:28:29;99465.86;;;8.11;80.10
35291;BME280;21411;50.024;19.220;2024-03-17T09:30:56;99463.52;;;8.08;81.62
35291;BME280;21411;50.024;19.220;2024-03-17T09:33:24;99469.08;;;8.07;79.80
35291;BME280;21411;50.024;19.220;2024-03-17T09:35:54;99467.59;;;8.12;80.81
35291;BME280;21411;50.024;19.220;2024-03-17T09:38:21;99460.54;;;8.22;81.02
35291;BME280;21411;50.024;19.220;2024-03-17T09:40:48;99458.35;;;8.30;79.26
35291;BME280;21411;50.024;19.220;2024-03-17T09:43:17;99461.81;;;8.11;76.44
35291;BME280;21411;50.024;19.220;2024-03-17T09:45:44;99459.23;;;8.02;78.86
35291;BME280;21411;50.024;19.220;2024-03-17T09:48:16;99457.98;;;8.17;78.07
35291;BME280;21411;50.024;19.220;2024-03-17T09:56:00;99455.14;;;8.60;77.76
35291;BME280;21411;50.024;19.220;2024-03-17T09:58:27;99454.63;;;8.63;75.41
35291;BME280;21411;50.024;19.220;2024-03-17T10:00:54;99448.66;;;8.62;75.27
35291;BME280;21411;50.024;19.220;2024-03-17T10:06:15;99449.54;;;8.75;73.71
35291;BME280;21411;50.024;19.220;2024-03-17T10:08:47;99451.42;;;8.76;70.29
35291;BME280;21411;50.024;19.220;2024-03-17T10:11:16;99451.77;;;8.63;69.45
35291;BME280;21411;50.024;19.220;2024-03-17T10:13:44;99445.27;;;8.51;71.17
35291;BME280;21411;50.024;19.220;2024-03-17T10:16:21;99435.74;;;8.58;71.93
35291;BME280;21411;50.024;19.220;2024-03-17T10:18:48;99432.02;;;8.62;70.93
35291;BME280;21411;50.024;19.220;2024-03-17T10:21:27;99432.05;;;8.50;70.42
35291;BME280;21411;50.024;19.220;2024-03-17T10:24:07;99429.84;;;8.59;70.43
35291;BME280;21411;50.024;19.220;2024-03-17T10:26:43;99432.56;;;8.64;68.99
35291;BME280;21411;50.024;19.220;2024-03-17T10:29:29;99428.67;;;8.78;68.69
35291;BME280;21411;50.024;19.220;2024-03-17T10:32:22;99427.50;;;8.97;67.09
35291;BME280;21411;50.024;19.220;2024-03-17T10:34:51;99417.65;;;9.21;67.93
35291;BME280;21411;50.024;19.220;2024-03-17T10:37:19;99413.75;;;9.38;68.35
35291;BME280;21411;50.024;19.220;2024-03-17T10:39:53;99415.17;;;9.51;68.89
35291;BME280;21411;50.024;19.220;2024-03-17T10:42:25;99416.88;;;9.68;68.26
35291;BME280;21411;50.024;19.220;2024-03-17T10:44:54;99416.46;;;9.75;68.76
35291;BME280;21411;50.024;19.220;2024-03-17T10:47:26;99411.11;;;9.78;68.86
35291;BME280;21411;50.024;19.220;2024-03-17T10:49:55;99416.45;;;9.72;67.00
35291;BME280;21411;50.024;19.220;2024-03-17T10:52:23;99416.66;;;9.53;67.30
35291;BME280;21411;50.024;19.220;2024-03-17T10:54:53;99417.05;;;9.46;66.64
35291;BME280;21411;50.024;19.220;2024-03-17T11:00:00;99413.42;;;8.98;65.55
35291;BME280;21411;50.024;19.220;2024-03-17T11:02:29;99415.79;;;8.87;66.63
35291;BME280;21411;50.024;19.220;2024-03-17T11:05:00;99415.29;;;8.79;66.81
35291;BME280;21411;50.024;19.220;2024-03-17T11:07:27;99413.61;;;8.71;66.55
35291;BME280;21411;50.024;19.220;2024-03-17T11:09:55;99410.96;;;8.61;65.59
35291;BME280;21411;50.024;19.220;2024-03-17T11:17:53;99403.75;;;8.39;66.99
35291;BME280;21411;50.024;19.220;2024-03-17T11:20:24;99405.13;;;8.40;66.08
35291;BME280;21411;50.024;19.220;2024-03-17T11:22:52;99406.86;;;8.26;65.61
35291;BME280;21411;50.024;19.220;2024-03-17T11:27:57;99400.45;;;8.13;66.72
35291;BME280;21411;50.024;19.220;2024-03-17T11:39:02;99398.05;;;8.36;66.18
35291;BME280;21411;50.024;19.220;2024-03-17T11:46:55;99385.28;;;8.47;67.01
35291;BME280;21411;50.024;19.220;2024-03-17T11:49:27;99383.92;;;8.49;67.81
35291;BME280;21411;50.024;19.220;2024-03-17T11:51:55;99379.49;;;8.70;67.26
35291;BME280;21411;50.024;19.220;2024-03-17T11:54:27;99373.96;;;8.94;67.27
35291;BME280;21411;50.024;19.220;2024-03-17T11:56:56;99362.77;;;9.14;66.34
35291;BME280;21411;50.024;19.220;2024-03-17T11:59:26;99355.36;;;9.19;65.62
35291;BME280;21411;50.024;19.220;2024-03-17T12:01:53;99358.21;;;9.10;64.47
35291;BME280;21411;50.024;19.220;2024-03-17T12:04:21;99353.47;;;9.02;65.84
35291;BME280;21411;50.024;19.220;2024-03-17T12:06:49;99347.91;;;9.07;66.81
35291;BME280;21411;50.024;19.220;2024-03-17T12:09:21;99344.58;;;9.16;66.66
35291;BME280;21411;50.024;19.220;2024-03-17T12:11:48;99341.13;;;9.08;66.44
35291;BME280;21411;50.024;19.220;2024-03-17T12:14:19;99339.83;;;8.96;66.27
35291;BME280;21411;50.024;19.220;2024-03-17T12:16:53;99346.60;;;8.79;65.01
35291;BME280;21411;50.024;19.220;2024-03-17T12:19:20;99349.15;;;8.65;65.42
35291;BME280;21411;50.024;19.220;2024-03-17T12:21:52;99345.70;;;8.52;65.09
35291;BME280;21411;50.024;19.220;2024-03-17T12:24:21;99341.71;;;8.44;65.25
35291;BME280;21411;50.024;19.220;2024-03-17T12:26:49;99337.64;;;8.41;65.00
35291;BME280;21411;50.024;19.220;2024-03-17T12:29:32;99338.18;;;8.44;65.12
35291;BME280;21411;50.024;19.220;2024-03-17T12:32:03;99335.73;;;8.70;65.63
35291;BME280;21411;50.024;19.220;2024-03-17T12:34:32;99331.66;;;8.89;66.36
35291;BME280;21411;50.024;19.220;2024-03-17T12:37:00;99325.68;;;9.08;66.35
35291;BME280;21411;50.024;19.220;2024-03-17T12:39:28;99329.61;;;9.27;66.41
35291;BME280;21411;50.024;19.220;2024-03-17T12:42:09;99324.23;;;9.49;66.09
35291;BME280;21411;50.024;19.220;2024-03-17T12:44:39;99318.41;;;9.52;63.86
35291;BME280;21411;50.024;19.220;2024-03-17T12:47:16;99320.77;;;9.42;63.61
35291;BME280;21411;50.024;19.220;2024-03-17T12:49:45;99323.36;;;9.27;62.54
35291;BME280;21411;50.024;19.220;2024-03-17T12:52:26;99323.95;;;9.14;62.46
35291;BME280;21411;50.024;19.220;2024-03-17T12:55:18;99320.66;;;9.12;62.93
35291;BME280;21411;50.024;19.220;2024-03-17T13:01:00;99309.10;;;9.26;62.23
35291;BME280;21411;50.024;19.220;2024-03-17T13:03:29;99303.55;;;9.27;61.96
35291;BME280;21411;50.024;19.220;2024-03-17T13:05:56;99301.98;;;9.39;62.57
35291;BME280;21411;50.024;19.220;2024-03-17T13:08:22;99302.60;;;9.46;62.08
35291;BME280;21411;50.024;19.220;2024-03-17T13:10:48;99302.35;;;9.48;62.25
35291;BME280;21411;50.024;19.220;2024-03-17T13:13:15;99298.26;;;9.51;62.60
35291;BME280;21411;50.024;19.220;2024-03-17T13:15:43;99299.72;;;9.47;60.76
35291;BME280;21411;50.024;19.220;2024-03-17T13:18:16;99299.31;;;9.39;60.99
35291;BME280;21411;50.024;19.220;2024-03-17T13:20:44;99298.45;;;9.22;61.16
35291;BME280;21411;50.024;19.220;2024-03-17T13:23:11;99295.98;;;9.16;60.98
35291;BME280;21411;50.024;19.220;2024-03-17T13:25:39;99294.10;;;9.08;60.15
35291;BME280;21411;50.024;19.220;2024-03-17T13:28:06;99298.36;;;9.09;60.02
35291;BME280;21411;50.024;19.220;2024-03-17T13:30:35;99296.70;;;9.22;59.81
35291;BME280;21411;50.024;19.220;2024-03-17T13:33:06;99286.73;;;9.32;59.57
35291;BME280;21411;50.024;19.220;2024-03-17T13:35:37;99283.42;;;9.37;60.46